sensor_id;sensor_type;location;lat;lon;timestamp;pressure;altitude;pressure_sealevel;temperature;humidity
40384;BME280;26097;42.366;23.818;2023-03-14T00:02:31;94361.56;;;-4.07;100.00
40384;BME280;26097;42.366;23.818;2023-03-14T00:05:31;94357.34;;;-4.08;100.00
40384;BME280;26097;42.366;23.818;2023-03-14T00:08:31;94348.03;;;-4.09;100.00
40384;BME280;26097;42.366;23.818;2023-03-14T00:11:32;94347.13;;;-4.07;100.00
40384;BME280;26097;42.366;23.818;2023-03-14T00:14:33;94347.22;;;-4.11;100.00
40384;BME280;26097;42.366;23.818;2023-03-14T00:17:34;94344.69;;;-4.14;100.00
40384;BME280;26097;42.366;23.818;2023-03-14T00:20:35;94339.56;;;-4.11;100.00
40384;BME280;26097;42.366;23.818;2023-03-14T00:23:37;94329.41;;;-4.14;100.00
40384;BME280;26097;42.366;23.818;2023-03-14T00:26:38;94324.38;;;-4.16;100.00
40384;BME280;26097;42.366;23.818;2023-03-14T00:29:39;94317.59;;;-4.19;100.00
40384;BME280;26097;42.366;23.818;2023-03-14T00:32:39;94311.69;;;-4.19;100.00
40384;BME280;26097;42.366;23.818;2023-03-14T00:35:40;94312.66;;;-4.28;100.00
40384;BME280;26097;42.366;23.818;2023-03-14T00:38:41;94313.53;;;-4.29;100.00
40384;BME280;26097;42.366;23.818;2023-03-14T00:41:41;94306.66;;;-4.25;100.00
40384;BME280;26097;42.366;23.818;2023-03-14T00:44:42;94303.34;;;-4.31;100.00
40384;BME280;26097;42.366;23.818;2023-03-14T00:47:42;94316.16;;;-4.35;100.00
40384;BME280;26097;42.366;23.818;2023-03-14T00:50:46;94312.78;;;-4.37;100.00
40384;BME280;26097;42.366;23.818;2023-03-14T00:53:46;94305.97;;;-4.35;100.00
40384;BME280;26097;42.366;23.818;2023-03-14T00:56:46;94302.69;;;-4.43;100.00
40384;BME280;26097;42.366;23.818;2023-03-14T00:59:47;94292.53;;;-4.43;100.00
40384;BME280;26097;42.366;23.818;2023-03-14T01:02:47;94290.03;;;-4.47;100.00
40384;BME280;26097;42.366;23.818;2023-03-14T01:05:48;94279.03;;;-4.49;100.00
40384;BME280;26097;42.366;23.818;2023-03-14T01:08:48;94280.72;;;-4.48;100.00
40384;BME280;26097;42.366;23.818;2023-03-14T01:11:48;94270.53;;;-4.48;100.00
40384;BME280;26097;42.366;23.818;2023-03-14T01:14:49;94263.81;;;-4.52;100.00
40384;BME280;26097;42.366;23.818;2023-03-14T01:17:49;94259.53;;;-4.50;100.00
40384;BME280;26097;42.366;23.818;2023-03-14T01:20:50;94251.91;;;-4.50;100.00
40384;BME280;26097;42.366;23.818;2023-03-14T01:23:51;94246.91;;;-4.56;100.00
40384;BME280;26097;42.366;23.818;2023-03-14T01:26:52;94237.63;;;-4.59;100.00
40384;BME280;26097;42.366;23.818;2023-03-14T01:29:52;94235.13;;;-4.63;100.00
40384;BME280;26097;42.366;23.818;2023-03-14T01:32:52;94225.06;;;-4.69;100.00
40384;BME280;26097;42.366;23.818;2023-03-14T01:35:53;94228.31;;;-4.60;100.00
40384;BME280;26097;42.366;23.818;2023-03-14T01:38:53;94230.06;;;-4.63;100.00
40384;BME280;26097;42.366;23.818;2023-03-14T01:41:54;94214.03;;;-4.70;100.00
40384;BME280;26097;42.366;23.818;2023-03-14T01:44:56;94218.25;;;-4.69;100.00
40384;BME280;26097;42.366;23.818;2023-03-14T01:47:57;94222.41;;;-4.63;100.00
40384;BME280;26097;42.366;23.818;2023-03-14T01:50:59;94221.59;;;-4.65;100.00
40384;BME280;26097;42.366;23.818;2023-03-14T01:54:27;94216.63;;;-4.71;100.00
40384;BME280;26097;42.366;23.818;2023-03-14T01:57:37;94228.53;;;-4.77;100.00
40384;BME280;26097;42.366;23.818;2023-03-14T02:00:38;94223.59;;;-4.88;100.00
40384;BME280;26097;42.366;23.818;2023-03-14T02:03:47;94233.78;;;-4.86;100.00
40384;BME280;26097;42.366;23.818;2023-03-14T02:07:03;94238.81;;;-4.83;100.00
40384;BME280;26097;42.366;23.818;2023-03-14T02:10:05;94232.00;;;-4.82;100.00
40384;BME280;26097;42.366;23.818;2023-03-14T02:13:06;94227.81;;;-4.85;100.00
40384;BME280;26097;42.366;23.818;2023-03-14T02:16:07;94229.50;;;-4.85;100.00
40384;BME280;26097;42.366;23.818;2023-03-14T02:19:08;94226.03;;;-4.78;100.00
40384;BME280;26097;42.366;23.818;2023-03-14T02:22:13;94226.91;;;-4.79;100.00
40384;BME280;26097;42.366;23.818;2023-03-14T02:25:27;94238.00;;;-4.87;100.00
40384;BME280;26097;42.366;23.818;2023-03-14T02:28:29;94233.97;;;-5.02;100.00
40384;BME280;26097;42.366;23.818;2023-03-14T02:31:29;94233.97;;;-5.00;100.00
40384;BME280;26097;42.366;23.818;2023-03-14T02:34:31;94228.06;;;-5.04;100.00
40384;BME280;26097;42.366;23.818;2023-03-14T02:37:56;94227.22;;;-5.03;100.00
40384;BME280;26097;42.366;23.818;2023-03-14T02:40:57;94228.84;;;-4.98;100.00
40384;BME280;26097;42.366;23.818;2023-03-14T02:43:58;94224.56;;;-4.95;100.00
40384;BME280;26097;42.366;23.818;2023-03-14T02:46:58;94218.56;;;-4.89;100.00
40384;BME280;26097;42.366;23.818;2023-03-14T02:50:06;94218.69;;;-4.98;100.00
40384;BME280;26097;42.366;23.818;2023-03-14T02:53:06;94207.69;;;-5.00;100.00
40384;BME280;26097;42.366;23.818;2023-03-14T02:56:08;94206.97;;;-5.09;100.00
40384;BME280;26097;42.366;23.818;2023-03-14T02:59:09;94207.75;;;-5.05;100.00
40384;BME280;26097;42.366;23.818;2023-03-14T03:02:09;94197.56;;;-5.04;100.00
40384;BME280;26097;42.366;23.818;2023-03-14T03:05:09;94212.06;;;-5.12;100.00
40384;BME280;26097;42.366;23.818;2023-03-14T03:08:10;94206.34;;;-5.28;100.00
40384;BME280;26097;42.366;23.818;2023-03-14T03:11:10;94191.09;;;-5.28;100.00
40384;BME280;26097;42.366;23.818;2023-03-14T03:14:11;94192.78;;;-5.25;100.00
40384;BME280;26097;42.366;23.818;2023-03-14T03:17:11;94186.84;;;-5.24;100.00
40384;BME280;26097;42.366;23.818;2023-03-14T03:20:11;94184.19;;;-5.18;100.00
40384;BME280;26097;42.366;23.818;2023-03-14T03:23:12;94188.50;;;-5.23;100.00
40384;BME280;26097;42.366;23.818;2023-03-14T03:26:13;94192.72;;;-5.22;100.00
40384;BME280;26097;42.366;23.818;2023-03-14T03:29:13;94191.97;;;-5.27;100.00
40384;BME280;26097;42.366;23.818;2023-03-14T03:32:13;94204.75;;;-5.37;100.00
40384;BME280;26097;42.366;23.818;2023-03-14T03:35:14;94203.13;;;-5.39;100.00
40384;BME280;26097;42.366;23.818;2023-03-14T03:38:15;94202.34;;;-5.46;100.00
40384;BME280;26097;42.366;23.818;2023-03-14T03:41:16;94202.31;;;-5.43;100.00
40384;BME280;26097;42.366;23.818;2023-03-14T03:44:16;94204.84;;;-5.43;100.00
40384;BME280;26097;42.366;23.818;2023-03-14T03:47:16;94207.47;;;-5.49;100.00
40384;BME280;26097;42.366;23.818;2023-03-14T03:50:17;94208.31;;;-5.49;100.00
40384;BME280;26097;42.366;23.818;2023-03-14T03:53:17;94206.53;;;-5.43;100.00
40384;BME280;26097;42.366;23.818;2023-03-14T03:56:18;94209.16;;;-5.48;100.00
40384;BME280;26097;42.366;23.818;2023-03-14T03:59:18;94212.47;;;-5.43;100.00
40384;BME280;26097;42.366;23.818;2023-03-14T04:02:19;94204.84;;;-5.43;100.00
40384;BME280;26097;42.366;23.818;2023-03-14T04:05:19;94191.28;;;-5.43;100.00
40384;BME280;26097;42.366;23.818;2023-03-14T04:08:20;94186.16;;;-5.40;100.00
40384;BME280;26097;42.366;23.818;2023-03-14T04:11:20;94195.59;;;-5.47;100.00
40384;BME280;26097;42.366;23.818;2023-03-14T04:14:21;94201.63;;;-5.57;100.00
40384;BME280;26097;42.366;23.818;2023-03-14T04:17:22;94196.50;;;-5.53;100.00
40384;BME280;26097;42.366;23.818;2023-03-14T04:20:22;94190.72;;;-5.66;100.00
40384;BME280;26097;42.366;23.818;2023-03-14T04:23:23;94183.06;;;-5.63;100.00
40384;BME280;26097;42.366;23.818;2023-03-14T04:26:24;94183.91;;;-5.61;100.00
40384;BME280;26097;42.366;23.818;2023-03-14T04:29:24;94186.34;;;-5.53;100.00
40384;BME280;26097;42.366;23.818;2023-03-14T04:32:25;94188.78;;;-5.45;100.00
40384;BME280;26097;42.366;23.818;2023-03-14T04:35:25;94183.75;;;-5.50;100.00
40384;BME280;26097;42.366;23.818;2023-03-14T04:38:25;94191.47;;;-5.57;100.00
40384;BME280;26097;42.366;23.818;2023-03-14T04:41:26;94185.53;;;-5.56;100.00
40384;BME280;26097;42.366;23.818;2023-03-14T04:44:26;94189.00;;;-5.64;100.00
40384;BME280;26097;42.366;23.818;2023-03-14T04:47:27;94183.81;;;-5.54;100.00
40384;BME280;26097;42.366;23.818;2023-03-14T04:50:28;94179.53;;;-5.51;100.00
40384;BME280;26097;42.366;23.818;2023-03-14T04:53:28;94171.91;;;-5.49;100.00
40384;BME280;26097;42.366;23.818;2023-03-14T04:56:28;94170.19;;;-5.47;100.00
40384;BME280;26097;42.366;23.818;2023-03-14T04:59:29;94171.78;;;-5.40;100.00
40384;BME280;26097;42.366;23.818;2023-03-14T05:02:29;94177.59;;;-5.30;100.00
40384;BME280;26097;42.366;23.818;2023-03-14T05:05:30;94177.44;;;-5.18;100.00
40384;BME280;26097;42.366;23.818;2023-03-14T05:08:30;94176.63;;;-5.21;100.00
40384;BME280;26097;42.366;23.818;2023-03-14T05:11:30;94180.13;;;-5.28;100.00
40384;BME280;26097;42.366;23.818;2023-03-14T05:14:32;94174.03;;;-5.17;100.00
40384;BME280;26097;42.366;23.818;2023-03-14T05:17:33;94173.84;;;-5.04;100.00
40384;BME280;26097;42.366;23.818;2023-03-14T05:20:33;94161.94;;;-5.00;100.00
40384;BME280;26097;42.366;23.818;2023-03-14T05:23:34;94162.66;;;-4.92;100.00
40384;BME280;26097;42.366;23.818;2023-03-14T05:26:34;94163.22;;;-4.73;100.00
40384;BME280;26097;42.366;23.818;2023-03-14T05:29:35;94152.97;;;-4.68;100.00
40384;BME280;26097;42.366;23.818;2023-03-14T05:32:35;94159.63;;;-4.61;100.00
40384;BME280;26097;42.366;23.818;2023-03-14T05:35:35;94155.06;;;-4.40;100.00
40384;BME280;26097;42.366;23.818;2023-03-14T05:38:36;94164.97;;;-4.25;100.00
40384;BME280;26097;42.366;23.818;2023-03-14T05:41:36;94168.16;;;-4.13;100.00
40384;BME280;26097;42.366;23.818;2023-03-14T05:44:37;94159.53;;;-4.05;100.00
40384;BME280;26097;42.366;23.818;2023-03-14T05:47:37;94171.97;;;-3.88;100.00
40384;BME280;26097;42.366;23.818;2023-03-14T05:50:37;94168.34;;;-3.76;100.00
40384;BME280;26097;42.366;23.818;2023-03-14T05:53:38;94167.19;;;-3.61;100.00
40384;BME280;26097;42.366;23.818;2023-03-14T05:56:38;94157.50;;;-3.43;100.00
40384;BME280;26097;42.366;23.818;2023-03-14T05:59:39;94157.22;;;-3.29;100.00
40384;BME280;26097;42.366;23.818;2023-03-14T06:02:39;94158.63;;;-3.14;100.00
40384;BME280;26097;42.366;23.818;2023-03-14T06:05:39;94150.59;;;-2.97;100.00
40384;BME280;26097;42.366;23.818;2023-03-14T06:08:40;94156.25;;;-2.84;100.00
40384;BME280;26097;42.366;23.818;2023-03-14T06:11:40;94148.22;;;-2.68;100.00
40384;BME280;26097;42.366;23.818;2023-03-14T06:14:41;94151.22;;;-2.51;100.00
40384;BME280;26097;42.366;23.818;2023-03-14T06:17:41;94141.38;;;-2.32;100.00
40384;BME280;26097;42.366;23.818;2023-03-14T06:20:41;94133.16;;;-2.08;100.00
40384;BME280;26097;42.366;23.818;2023-03-14T06:23:42;94142.88;;;-1.90;100.00
40384;BME280;26097;42.366;23.818;2023-03-14T06:26:42;94141.63;;;-1.75;100.00
40384;BME280;26097;42.366;23.818;2023-03-14T06:29:43;94137.72;;;-1.56;100.00
40384;BME280;26097;42.366;23.818;2023-03-14T06:32:43;94126.09;;;-1.37;100.00
40384;BME280;26097;42.366;23.818;2023-03-14T06:35:44;94123.88;;;-1.19;100.00
40384;BME280;26097;42.366;23.818;2023-03-14T06:38:44;94134.50;;;-1.03;100.00
40384;BME280;26097;42.366;23.818;2023-03-14T06:41:45;94125.41;;;-0.85;100.00
40384;BME280;26097;42.366;23.818;2023-03-14T06:44:45;94124.25;;;-0.75;100.00
40384;BME280;26097;42.366;23.818;2023-03-14T06:47:46;94128.03;;;-0.60;100.00
40384;BME280;26097;42.366;23.818;2023-03-14T06:50:48;94129.94;;;-0.39;100.00
40384;BME280;26097;42.366;23.818;2023-03-14T06:53:49;94122.47;;;-0.19;100.00
40384;BME280;26097;42.366;23.818;2023-03-14T06:56:49;94120.88;;;0.03;100.00
40384;BME280;26097;42.366;23.818;2023-03-14T06:59:49;94115.69;;;0.30;100.00
40384;BME280;26097;42.366;23.818;2023-03-14T07:02:50;94116.75;;;0.48;100.00
40384;BME280;26097;42.366;23.818;2023-03-14T07:05:50;94115.22;;;0.66;100.00
40384;BME280;26097;42.366;23.818;2023-03-14T07:08:51;94118.63;;;0.90;100.00
40384;BME280;26097;42.366;23.818;2023-03-14T07:11:51;94105.22;;;1.06;100.00
40384;BME280;26097;42.366;23.818;2023-03-14T07:14:51;94104.50;;;1.24;100.00
40384;BME280;26097;42.366;23.818;2023-03-14T07:17:52;94106.81;;;1.31;100.00
40384;BME280;26097;42.366;23.818;2023-03-14T07:20:52;94107.03;;;1.47;100.00
40384;BME280;26097;42.366;23.818;2023-03-14T07:23:53;94108.22;;;1.60;100.00
40384;BME280;26097;42.366;23.818;2023-03-14T07:26:54;94106.75;;;1.75;99.58
40384;BME280;26097;42.366;23.818;2023-03-14T07:29:54;94097.38;;;1.95;91.89
40384;BME280;26097;42.366;23.818;2023-03-14T07:32:54;94105.91;;;2.16;88.56
40384;BME280;26097;42.366;23.818;2023-03-14T07:35:55;94103.50;;;2.32;82.99
40384;BME280;26097;42.366;23.818;2023-03-14T07:38:55;94096.94;;;2.46;83.50
40384;BME280;26097;42.366;23.818;2023-03-14T07:41:56;94092.91;;;2.59;78.73
40384;BME280;26097;42.366;23.818;2023-03-14T07:44:56;94091.66;;;2.68;75.48
40384;BME280;26097;42.366;23.818;2023-03-14T07:47:56;94094.66;;;2.78;75.44
40384;BME280;26097;42.366;23.818;2023-03-14T07:50:57;94096.81;;;2.87;72.46
40384;BME280;26097;42.366;23.818;2023-03-14T07:53:58;94097.56;;;3.08;71.57
40384;BME280;26097;42.366;23.818;2023-03-14T07:56:58;94088.44;;;3.20;71.25
40384;BME280;26097;42.366;23.818;2023-03-14T08:00:00;94086.03;;;3.35;69.95
40384;BME280;26097;42.366;23.818;2023-03-14T08:03:01;94083.69;;;3.30;69.48
40384;BME280;26097;42.366;23.818;2023-03-14T08:06:02;94085.13;;;3.36;67.83
40384;BME280;26097;42.366;23.818;2023-03-14T08:09:03;94074.22;;;3.48;69.92
40384;BME280;26097;42.366;23.818;2023-03-14T08:12:04;94068.31;;;3.46;66.31
40384;BME280;26097;42.366;23.818;2023-03-14T08:15:05;94063.00;;;3.67;67.19
40384;BME280;26097;42.366;23.818;2023-03-14T08:18:05;94056.56;;;3.58;66.59
40384;BME280;26097;42.366;23.818;2023-03-14T08:21:06;94055.59;;;3.78;65.94
40384;BME280;26097;42.366;23.818;2023-03-14T08:24:06;94060.88;;;3.93;66.22
40384;BME280;26097;42.366;23.818;2023-03-14T08:27:07;94051.44;;;4.09;65.56
40384;BME280;26097;42.366;23.818;2023-03-14T08:30:10;94051.91;;;4.00;64.90
40384;BME280;26097;42.366;23.818;2023-03-14T08:33:11;94055.13;;;4.21;64.57
40384;BME280;26097;42.366;23.818;2023-03-14T08:36:11;94051.13;;;4.33;64.14
40384;BME280;26097;42.366;23.818;2023-03-14T08:39:11;94043.38;;;4.49;63.52
40384;BME280;26097;42.366;23.818;2023-03-14T08:42:12;94043.97;;;4.70;63.28
40384;BME280;26097;42.366;23.818;2023-03-14T08:45:15;94051.25;;;4.80;63.15
40384;BME280;26097;42.366;23.818;2023-03-14T08:48:16;94056.56;;;4.77;62.71
40384;BME280;26097;42.366;23.818;2023-03-14T08:51:17;94051.06;;;4.83;61.91
40384;BME280;26097;42.366;23.818;2023-03-14T08:54:17;94047.56;;;5.00;61.98
40384;BME280;26097;42.366;23.818;2023-03-14T08:57:18;94040.44;;;5.36;61.90
40384;BME280;26097;42.366;23.818;2023-03-14T09:00:19;94025.69;;;5.38;61.54
40384;BME280;26097;42.366;23.818;2023-03-14T09:03:20;94031.34;;;5.45;61.29
40384;BME280;26097;42.366;23.818;2023-03-14T09:06:23;94033.63;;;5.65;61.13
40384;BME280;26097;42.366;23.818;2023-03-14T09:09:24;94036.72;;;5.56;59.92
40384;BME280;26097;42.366;23.818;2023-03-14T09:12:27;94032.44;;;5.71;59.57
40384;BME280;26097;42.366;23.818;2023-03-14T09:15:27;94034.34;;;5.98;60.28
40384;BME280;26097;42.366;23.818;2023-03-14T09:18:27;94034.41;;;5.96;58.79
40384;BME280;26097;42.366;23.818;2023-03-14T09:21:29;94025.69;;;6.28;59.52
40384;BME280;26097;42.366;23.818;2023-03-14T09:24:29;94028.56;;;6.23;58.78
40384;BME280;26097;42.366;23.818;2023-03-14T09:27:30;94016.44;;;6.38;58.77
40384;BME280;26097;42.366;23.818;2023-03-14T09:30:30;94011.81;;;6.72;58.13
40384;BME280;26097;42.366;23.818;2023-03-14T09:33:30;94009.16;;;6.87;57.65
40384;BME280;26097;42.366;23.818;2023-03-14T09:36:31;94000.66;;;7.12;55.45
40384;BME280;26097;42.366;23.818;2023-03-14T09:39:31;93994.00;;;7.36;56.09
40384;BME280;26097;42.366;23.818;2023-03-14T09:42:32;93991.09;;;7.68;55.54
40384;BME280;26097;42.366;23.818;2023-03-14T09:45:40;93976.13;;;7.58;54.72
40384;BME280;26097;42.366;23.818;2023-03-14T09:48:43;93969.09;;;7.86;54.63
40384;BME280;26097;42.366;23.818;2023-03-14T09:51:46;93972.41;;;7.89;54.67
40384;BME280;26097;42.366;23.818;2023-03-14T09:54:51;93969.31;;;8.09;52.55
40384;BME280;26097;42.366;23.818;2023-03-14T09:57:57;93963.44;;;8.32;52.82
40384;BME280;26097;42.366;23.818;2023-03-14T10:00:58;93956.00;;;8.27;52.30
40384;BME280;26097;42.366;23.818;2023-03-14T10:04:02;93958.78;;;8.37;52.98
40384;BME280;26097;42.366;23.818;2023-03-14T10:07:05;93949.63;;;8.44;51.49
40384;BME280;26097;42.366;23.818;2023-03-14T10:10:11;93937.16;;;8.36;50.77
40384;BME280;26097;42.366;23.818;2023-03-14T10:16:29;93913.06;;;8.84;49.54
40384;BME280;26097;42.366;23.818;2023-03-14T10:19:30;93912.50;;;8.92;50.86
40384;BME280;26097;42.366;23.818;2023-03-14T10:22:31;93902.81;;;8.94;50.31
40384;BME280;26097;42.366;23.818;2023-03-14T10:25:34;93898.00;;;9.01;50.32
40384;BME280;26097;42.366;23.818;2023-03-14T10:35:08;93873.19;;;9.44;47.58
40384;BME280;26097;42.366;23.818;2023-03-14T10:38:16;93863.41;;;9.70;48.22
40384;BME280;26097;42.366;23.818;2023-03-14T10:41:34;93849.56;;;9.81;47.64
40384;BME280;26097;42.366;23.818;2023-03-14T10:44:36;93851.44;;;10.48;46.17
40384;BME280;26097;42.366;23.818;2023-03-14T10:47:48;93840.50;;;10.65;44.47
40384;BME280;26097;42.366;23.818;2023-03-14T10:54:13;93836.38;;;10.51;45.40
40384;BME280;26097;42.366;23.818;2023-03-14T10:57:14;93825.31;;;10.70;45.46
40384;BME280;26097;42.366;23.818;2023-03-14T11:00:20;93822.91;;;10.79;43.13
40384;BME280;26097;42.366;23.818;2023-03-14T11:03:23;93808.19;;;10.89;43.96
40384;BME280;26097;42.366;23.818;2023-03-14T11:06:54;93800.41;;;10.78;43.31
40384;BME280;26097;42.366;23.818;2023-03-14T11:16:29;93774.47;;;11.40;42.97
40384;BME280;26097;42.366;23.818;2023-03-14T11:22:43;93762.97;;;11.52;42.34
40384;BME280;26097;42.366;23.818;2023-03-14T11:29:21;93750.00;;;11.72;39.98
40384;BME280;26097;42.366;23.818;2023-03-14T11:36:02;93735.38;;;12.00;41.07
40384;BME280;26097;42.366;23.818;2023-03-14T11:39:11;93729.94;;;12.13;41.08
40384;BME280;26097;42.366;23.818;2023-03-14T11:42:17;93731.59;;;12.14;40.44
40384;BME280;26097;42.366;23.818;2023-03-14T11:45:39;93717.41;;;12.07;39.70
40384;BME280;26097;42.366;23.818;2023-03-14T11:49:26;93721.69;;;12.18;40.66
40384;BME280;26097;42.366;23.818;2023-03-14T11:52:14;93709.06;;;12.33;40.29
40384;BME280;26097;42.366;23.818;2023-03-14T11:55:24;93707.56;;;12.40;40.13
40384;BME280;26097;42.366;23.818;2023-03-14T11:58:30;93692.50;;;12.92;40.56
40384;BME280;26097;42.366;23.818;2023-03-14T12:01:44;93685.09;;;12.87;38.96
40384;BME280;26097;42.366;23.818;2023-03-14T12:05:20;93680.06;;;13.13;38.43
40384;BME280;26097;42.366;23.818;2023-03-14T12:08:41;93673.13;;;13.32;38.94
40384;BME280;26097;42.366;23.818;2023-03-14T12:11:56;93668.00;;;13.31;37.55
40384;BME280;26097;42.366;23.818;2023-03-14T12:15:00;93655.81;;;13.21;37.33
40384;BME280;26097;42.366;23.818;2023-03-14T12:18:01;93649.91;;;12.52;38.57
40384;BME280;26097;42.366;23.818;2023-03-14T12:21:03;93653.75;;;12.28;39.78
40384;BME280;26097;42.366;23.818;2023-03-14T12:24:18;93638.03;;;12.77;37.79
40384;BME280;26097;42.366;23.818;2023-03-14T12:27:43;93635.47;;;12.48;38.32
40384;BME280;26097;42.366;23.818;2023-03-14T12:30:47;93629.16;;;12.31;37.95
40384;BME280;26097;42.366;23.818;2023-03-14T12:33:48;93626.75;;;12.57;38.90
40384;BME280;26097;42.366;23.818;2023-03-14T12:40:21;93619.25;;;13.02;37.79
40384;BME280;26097;42.366;23.818;2023-03-14T12:43:33;93619.53;;;12.98;38.33
40384;BME280;26097;42.366;23.818;2023-03-14T12:46:34;93614.06;;;13.20;38.55
40384;BME280;26097;42.366;23.818;2023-03-14T12:49:35;93606.72;;;12.95;38.32
40384;BME280;26097;42.366;23.818;2023-03-14T13:02:49;93596.59;;;13.20;37.80
40384;BME280;26097;42.366;23.818;2023-03-14T13:05:58;93585.84;;;13.41;36.50
40384;BME280;26097;42.366;23.818;2023-03-14T13:12:32;93586.97;;;13.67;37.19
40384;BME280;26097;42.366;23.818;2023-03-14T13:15:39;93578.31;;;13.38;36.98
40384;BME280;26097;42.366;23.818;2023-03-14T13:18:43;93567.81;;;13.48;37.09
40384;BME280;26097;42.366;23.818;2023-03-14T13:21:44;93567.22;;;14.27;37.29
40384;BME280;26097;42.366;23.818;2023-03-14T13:24:45;93563.31;;;14.31;36.80
40384;BME280;26097;42.366;23.818;2023-03-14T13:27:46;93561.25;;;14.43;36.70
40384;BME280;26097;42.366;23.818;2023-03-14T13:30:49;93571.06;;;14.59;36.83
40384;BME280;26097;42.366;23.818;2023-03-14T13:34:11;93561.94;;;13.82;34.65
40384;BME280;26097;42.366;23.818;2023-03-14T13:37:23;93555.94;;;13.72;37.65
40384;BME280;26097;42.366;23.818;2023-03-14T13:40:28;93546.03;;;13.84;36.82
40384;BME280;26097;42.366;23.818;2023-03-14T13:43:40;93539.38;;;13.53;36.35
40384;BME280;26097;42.366;23.818;2023-03-14T13:46:41;93545.34;;;13.18;36.57
40384;BME280;26097;42.366;23.818;2023-03-14T13:49:43;93537.16;;;13.03;36.08
40384;BME280;26097;42.366;23.818;2023-03-14T13:52:43;93524.41;;;13.18;35.91
40384;BME280;26097;42.366;23.818;2023-03-14T13:55:44;93531.31;;;12.91;36.77
40384;BME280;26097;42.366;23.818;2023-03-14T13:58:45;93527.69;;;12.64;36.23
40384;BME280;26097;42.366;23.818;2023-03-14T14:01:46;93528.53;;;12.64;36.22
40384;BME280;26097;42.366;23.818;2023-03-14T14:04:47;93522.75;;;12.61;36.70
40384;BME280;26097;42.366;23.818;2023-03-14T14:07:49;93518.94;;;12.83;35.99
40384;BME280;26097;42.366;23.818;2023-03-14T14:10:53;93510.09;;;12.56;35.92
40384;BME280;26097;42.366;23.818;2023-03-14T14:13:55;93510.00;;;12.48;35.96
40384;BME280;26097;42.366;23.818;2023-03-14T14:16:58;93510.72;;;12.30;35.82
40384;BME280;26097;42.366;23.818;2023-03-14T14:20:03;93503.19;;;12.65;35.99
40384;BME280;26097;42.366;23.818;2023-03-14T14:23:10;93494.47;;;12.36;35.36
40384;BME280;26097;42.366;23.818;2023-03-14T14:26:16;93488.84;;;12.79;35.36
40384;BME280;26097;42.366;23.818;2023-03-14T14:29:28;93489.63;;;12.51;36.32
40384;BME280;26097;42.366;23.818;2023-03-14T14:32:35;93489.50;;;12.81;36.44
40384;BME280;26097;42.366;23.818;2023-03-14T14:35:36;93484.53;;;12.50;37.21
40384;BME280;26097;42.366;23.818;2023-03-14T14:38:37;93477.28;;;12.43;37.67
40384;BME280;26097;42.366;23.818;2023-03-14T14:41:40;93473.97;;;12.41;37.77
40384;BME280;26097;42.366;23.818;2023-03-14T14:44:42;93475.09;;;12.29;38.04
40384;BME280;26097;42.366;23.818;2023-03-14T14:47:56;93470.31;;;12.24;37.89
40384;BME280;26097;42.366;23.818;2023-03-14T14:51:00;93474.69;;;12.34;38.46
40384;BME280;26097;42.366;23.818;2023-03-14T14:54:10;93469.25;;;12.07;38.67
40384;BME280;26097;42.366;23.818;2023-03-14T14:57:19;93470.22;;;11.86;40.22
40384;BME280;26097;42.366;23.818;2023-03-14T15:00:25;93471.75;;;11.79;39.18
40384;BME280;26097;42.366;23.818;2023-03-14T15:03:27;93452.38;;;11.72;39.59
40384;BME280;26097;42.366;23.818;2023-03-14T15:06:29;93451.81;;;11.58;39.76
40384;BME280;26097;42.366;23.818;2023-03-14T15:09:31;93449.47;;;11.06;38.55
40384;BME280;26097;42.366;23.818;2023-03-14T15:12:31;93448.41;;;11.09;38.82
40384;BME280;26097;42.366;23.818;2023-03-14T15:15:32;93444.53;;;10.93;39.10
40384;BME280;26097;42.366;23.818;2023-03-14T15:18:32;93443.97;;;10.90;39.45
40384;BME280;26097;42.366;23.818;2023-03-14T15:21:33;93438.75;;;10.99;39.29
40384;BME280;26097;42.366;23.818;2023-03-14T15:24:33;93433.28;;;10.83;39.99
40384;BME280;26097;42.366;23.818;2023-03-14T15:27:33;93437.75;;;10.61;39.83
40384;BME280;26097;42.366;23.818;2023-03-14T15:30:34;93430.34;;;10.35;40.65
40384;BME280;26097;42.366;23.818;2023-03-14T15:33:34;93434.09;;;10.11;40.63
40384;BME280;26097;42.366;23.818;2023-03-14T15:36:36;93438.69;;;9.98;41.57
40384;BME280;26097;42.366;23.818;2023-03-14T15:39:36;93442.38;;;9.74;41.25
40384;BME280;26097;42.366;23.818;2023-03-14T15:42:37;93433.72;;;9.64;41.74
40384;BME280;26097;42.366;23.818;2023-03-14T15:45:37;93445.47;;;9.47;41.97
40384;BME280;26097;42.366;23.818;2023-03-14T15:48:38;93430.81;;;9.24;42.20
40384;BME280;26097;42.366;23.818;2023-03-14T15:51:39;93432.53;;;9.03;42.97
40384;BME280;26097;42.366;23.818;2023-03-14T15:54:42;93434.50;;;8.78;43.70
40384;BME280;26097;42.366;23.818;2023-03-14T15:57:43;93432.06;;;8.53;43.90
40384;BME280;26097;42.366;23.818;2023-03-14T16:00:44;93427.94;;;8.28;44.16
40384;BME280;26097;42.366;23.818;2023-03-14T16:03:45;93426.53;;;8.01;44.91
40384;BME280;26097;42.366;23.818;2023-03-14T16:06:45;93419.66;;;7.77;45.69
40384;BME280;26097;42.366;23.818;2023-03-14T16:09:46;93429.31;;;7.52;45.97
40384;BME280;26097;42.366;23.818;2023-03-14T16:12:46;93419.06;;;7.26;46.52
40384;BME280;26097;42.366;23.818;2023-03-14T16:15:57;93415.22;;;6.96;48.70
40384;BME280;26097;42.366;23.818;2023-03-14T16:18:58;93422.19;;;6.71;47.85
40384;BME280;26097;42.366;23.818;2023-03-14T16:21:58;93418.72;;;6.47;48.59
40384;BME280;26097;42.366;23.818;2023-03-14T16:24:59;93412.69;;;6.22;49.57
40384;BME280;26097;42.366;23.818;2023-03-14T16:27:59;93421.91;;;6.00;49.48
40384;BME280;26097;42.366;23.818;2023-03-14T16:31:01;93421.50;;;5.80;49.83
40384;BME280;26097;42.366;23.818;2023-03-14T16:34:02;93425.75;;;5.55;50.37
40384;BME280;26097;42.366;23.818;2023-03-14T16:37:03;93427.50;;;5.42;50.46
40384;BME280;26097;42.366;23.818;2023-03-14T16:40:04;93423.13;;;5.29;50.61